createdAt,value
2022-12-31T00:01:29.041Z,62.31
2022-12-31T00:06:32.702Z,62.29
2022-12-31T00:11:32.225Z,62.01
2022-12-31T00:16:33.766Z,62.25
2022-12-31T00:21:35.491Z,61.96
2022-12-31T00:26:35.866Z,62.21
2022-12-31T00:31:37.136Z,62.16
2022-12-31T00:36:39.772Z,62.23
2022-12-31T00:41:39.040Z,62.10
2022-12-31T00:51:35.552Z,62.82
2022-12-31T00:56:35.907Z,62.26
2022-12-31T01:01:37.657Z,62.25
2022-12-31T01:06:36.863Z,61.87
2022-12-31T01:11:37.581Z,61.89
2022-12-31T01:16:39.298Z,61.81
2022-12-31T01:21:39.808Z,61.98
2022-12-31T01:26:40.615Z,61.96
2022-12-31T01:31:39.991Z,61.58
2022-12-31T01:36:39.518Z,61.70
2022-12-31T01:41:42.101Z,61.86
2022-12-31T01:46:44.271Z,61.88
2022-12-31T01:51:45.466Z,61.69
2022-12-31T01:56:48.620Z,61.85
2022-12-31T02:01:48.992Z,61.33
2022-12-31T02:06:51.464Z,61.78
2022-12-31T02:11:51.649Z,61.85
2022-12-31T02:16:56.760Z,61.82
2022-12-31T02:22:02.865Z,61.72
2022-12-31T02:27:10.781Z,61.85
2022-12-31T02:32:17.858Z,61.79
2022-12-31T02:37:19.613Z,61.86
2022-12-31T02:42:18.466Z,61.86
2022-12-31T02:47:34.829Z,62.03
2022-12-31T02:52:43.233Z,62.21
2022-12-31T02:57:50.060Z,62.37
2022-12-31T03:02:52.789Z,62.33
2022-12-31T03:07:51.989Z,62.54
2022-12-31T03:12:51.620Z,62.70
2022-12-31T03:17:54.167Z,62.92
2022-12-31T03:22:52.945Z,63.23
2022-12-31T03:27:51.788Z,63.58
2022-12-31T03:32:52.735Z,63.82
2022-12-31T03:37:52.908Z,63.78
2022-12-31T03:42:51.881Z,64.02
2022-12-31T03:47:52.147Z,64.10
2022-12-31T03:52:50.942Z,64.19
2022-12-31T03:57:49.853Z,64.71
2022-12-31T04:02:49.469Z,64.67
2022-12-31T04:07:52.271Z,65.03
2022-12-31T04:12:51.097Z,65.05
2022-12-31T04:17:50.484Z,64.91
2022-12-31T04:22:50.692Z,65.11
2022-12-31T04:27:49.437Z,65.23
2022-12-31T04:32:48.301Z,65.02
2022-12-31T04:37:47.140Z,64.85
2022-12-31T04:42:47.383Z,64.95
2022-12-31T04:47:46.248Z,64.36
2022-12-31T04:52:45.171Z,64.71
2022-12-31T04:57:43.937Z,64.29
2022-12-31T05:02:44.194Z,64.40
2022-12-31T05:07:43.058Z,64.12
2022-12-31T05:12:41.784Z,64.17
2022-12-31T05:17:40.665Z,64.27
2022-12-31T05:22:40.875Z,64.23
2022-12-31T05:27:40.860Z,64.29
2022-12-31T05:32:39.973Z,64.30
2022-12-31T05:37:40.180Z,64.26
2022-12-31T05:42:39.267Z,64.20
2022-12-31T05:47:38.071Z,64.18
2022-12-31T05:52:37.533Z,64.28
2022-12-31T05:57:37.790Z,63.92
2022-12-31T06:02:36.846Z,63.95
2022-12-31T06:07:36.159Z,64.14
2022-12-31T06:12:37.491Z,63.99
2022-12-31T06:17:37.014Z,63.72
2022-12-31T06:22:38.108Z,63.73
2022-12-31T06:27:40.658Z,63.70
2022-12-31T06:32:45.071Z,63.51
2022-12-31T06:37:45.406Z,63.47
2022-12-31T06:42:46.175Z,63.36
2022-12-31T06:47:44.937Z,63.27
2022-12-31T06:52:44.059Z,63.18
2022-12-31T06:57:43.377Z,63.44
2022-12-31T07:03:07.202Z,63.18
2022-12-31T07:08:23.036Z,63.19
2022-12-31T07:13:44.205Z,63.53
2022-12-31T07:18:49.150Z,63.61
2022-12-31T07:23:48.463Z,63.67
2022-12-31T07:28:59.214Z,63.46
2022-12-31T07:34:03.072Z,63.24
2022-12-31T07:39:07.068Z,62.89
2022-12-31T07:44:17.399Z,62.94
2022-12-31T07:49:19.188Z,63.16
2022-12-31T07:54:19.411Z,63.46
2022-12-31T07:59:26.236Z,63.35
2022-12-31T08:04:30.175Z,63.16
2022-12-31T08:09:44.100Z,63.88
2022-12-31T08:14:46.366Z,64.75
2022-12-31T08:19:56.883Z,64.98
2022-12-31T08:25:09.036Z,65.35
2022-12-31T08:30:12.337Z,65.44
2022-12-31T08:35:25.273Z,65.84
2022-12-31T08:40:29.192Z,65.74
2022-12-31T08:45:35.996Z,65.72
2022-12-31T08:50:36.969Z,65.66
2022-12-31T08:55:36.542Z,65.88
2022-12-31T09:00:37.760Z,66.03
2022-12-31T09:05:48.848Z,64.65
2022-12-31T09:10:55.325Z,62.77
2022-12-31T09:16:04.487Z,61.24
2022-12-31T09:21:05.127Z,59.66
2022-12-31T09:26:14.543Z,58.21
2022-12-31T09:31:18.526Z,57.83
2022-12-31T09:36:23.571Z,55.04
2022-12-31T09:42:02.053Z,53.79
2022-12-31T09:47:38.035Z,53.72
2022-12-31T09:52:53.251Z,52.98
2022-12-31T09:58:02.360Z,51.59
2022-12-31T10:03:21.395Z,51.16
2022-12-31T10:08:41.637Z,51.09
2022-12-31T10:14:07.843Z,50.99
2022-12-31T10:19:29.435Z,49.78
2022-12-31T10:24:57.930Z,49.06
2022-12-31T10:30:07.136Z,48.67
2022-12-31T10:35:25.006Z,48.94
2022-12-31T10:40:36.437Z,48.13
2022-12-31T10:45:54.152Z,47.89
2022-12-31T10:51:33.598Z,48.02
2022-12-31T10:56:55.073Z,46.10
2022-12-31T11:02:11.186Z,44.94
2022-12-31T11:07:54.776Z,44.02
2022-12-31T11:13:40.918Z,44.71
2022-12-31T11:18:49.085Z,43.94
2022-12-31T11:23:57.873Z,44.67
2022-12-31T11:29:15.955Z,42.92
2022-12-31T11:34:33.263Z,43.03
2022-12-31T11:39:46.163Z,43.40
2022-12-31T11:44:51.098Z,44.66
2022-12-31T11:50:07.826Z,43.43
2022-12-31T11:55:24.559Z,41.94
2022-12-31T12:00:25.931Z,42.54
2022-12-31T12:05:27.503Z,43.49
2022-12-31T12:10:35.613Z,42.85
2022-12-31T12:15:36.425Z,42.96
2022-12-31T12:20:39.945Z,42.82
2022-12-31T12:25:41.330Z,40.96
2022-12-31T12:30:41.702Z,38.80
2022-12-31T12:35:42.152Z,38.72
2022-12-31T12:40:41.880Z,38.54
2022-12-31T12:45:49.176Z,38.14
2022-12-31T12:50:52.195Z,38.45
2022-12-31T12:56:03.735Z,38.71
2022-12-31T13:01:11.809Z,40.25
2022-12-31T13:06:28.377Z,39.87
2022-12-31T13:11:38.393Z,39.79
2022-12-31T13:16:44.855Z,40.79
2022-12-31T13:21:56.538Z,39.75
2022-12-31T13:27:00.272Z,40.19
2022-12-31T13:32:03.166Z,41.60
2022-12-31T13:37:08.075Z,42.04
2022-12-31T13:42:14.393Z,41.23
2022-12-31T13:47:18.504Z,41.23
2022-12-31T13:52:28.970Z,40.97
2022-12-31T13:57:41.974Z,40.91
2022-12-31T14:02:47.478Z,40.85
2022-12-31T14:07:52.560Z,40.64
2022-12-31T14:12:57.681Z,41.09
2022-12-31T14:18:04.143Z,41.57
2022-12-31T14:23:17.917Z,41.29
2022-12-31T14:28:20.891Z,41.47
2022-12-31T14:33:45.652Z,41.77
2022-12-31T14:39:06.777Z,42.48
2022-12-31T14:44:19.874Z,42.51
2022-12-31T14:49:43.531Z,43.39
2022-12-31T14:54:44.357Z,43.80
2022-12-31T14:59:54.191Z,44.98
2022-12-31T15:05:04.167Z,45.75
2022-12-31T15:10:17.262Z,46.40
2022-12-31T15:15:29.453Z,47.59
2022-12-31T15:20:49.395Z,48.50
2022-12-31T15:25:53.151Z,48.94
2022-12-31T15:30:52.950Z,49.23
2022-12-31T15:35:54.239Z,49.67
2022-12-31T15:40:54.652Z,50.46
2022-12-31T15:45:56.132Z,51.13
2022-12-31T15:50:59.863Z,51.48
2022-12-31T15:56:02.053Z,51.76
2022-12-31T16:01:10.163Z,52.35
2022-12-31T16:06:13.761Z,52.78
2022-12-31T16:11:14.132Z,53.46
2022-12-31T16:16:24.743Z,54.50
2022-12-31T16:21:30.584Z,54.51
2022-12-31T16:26:38.240Z,54.44
2022-12-31T16:31:37.075Z,54.66
2022-12-31T16:36:36.660Z,54.72
2022-12-31T16:41:44.468Z,55.03
2022-12-31T16:46:43.405Z,55.41
2022-12-31T16:51:43.138Z,55.61
2022-12-31T16:56:44.982Z,55.66
2022-12-31T17:01:44.571Z,55.71
2022-12-31T17:06:44.637Z,55.98
2022-12-31T17:11:53.264Z,55.91
2022-12-31T17:17:03.477Z,55.98
2022-12-31T17:22:04.591Z,56.23
2022-12-31T17:27:08.025Z,56.11
2022-12-31T17:32:11.306Z,56.17
2022-12-31T17:37:18.680Z,56.06
2022-12-31T17:42:35.057Z,56.57
2022-12-31T17:47:39.514Z,56.90
2022-12-31T17:52:38.659Z,56.69
2022-12-31T17:57:39.139Z,56.99
2022-12-31T18:02:38.224Z,56.96
2022-12-31T18:07:39.741Z,57.26
2022-12-31T18:12:40.389Z,57.38
2022-12-31T18:17:39.276Z,57.47
2022-12-31T18:22:38.396Z,57.56
2022-12-31T18:27:42.158Z,57.64
2022-12-31T18:32:42.171Z,58.03
2022-12-31T18:37:40.981Z,58.50
2022-12-31T18:42:41.486Z,59.40
2022-12-31T18:47:40.346Z,60.02
2022-12-31T18:52:39.267Z,60.02
2022-12-31T18:57:37.969Z,60.24
2022-12-31T19:02:38.219Z,60.15
2022-12-31T19:07:37.476Z,60.16
2022-12-31T19:12:36.262Z,59.81
2022-12-31T19:17:35.072Z,59.95
2022-12-31T19:22:35.277Z,59.94
2022-12-31T19:27:34.029Z,60.30
2022-12-31T19:32:32.810Z,61.25
2022-12-31T19:37:31.589Z,62.50
2022-12-31T19:42:31.890Z,63.46
2022-12-31T19:47:30.639Z,62.86
2022-12-31T19:52:29.366Z,62.44
2022-12-31T19:57:28.144Z,62.39
2022-12-31T20:02:28.638Z,62.40
2022-12-31T20:07:27.635Z,63.70
2022-12-31T20:12:26.534Z,63.58
2022-12-31T20:17:25.893Z,63.70
2022-12-31T20:22:26.203Z,62.82
2022-12-31T20:27:25.172Z,64.73
2022-12-31T20:32:24.067Z,63.71
2022-12-31T20:37:22.874Z,63.37
2022-12-31T20:42:23.012Z,63.55
2022-12-31T20:47:21.956Z,63.33
2022-12-31T20:52:20.735Z,63.20
2022-12-31T20:57:19.474Z,62.95
2022-12-31T21:02:29.520Z,62.62
2022-12-31T21:07:38.207Z,62.32
2022-12-31T21:12:53.134Z,61.97
2022-12-31T21:17:53.509Z,61.72
2022-12-31T21:22:52.281Z,61.58
2022-12-31T21:27:51.108Z,61.99
2022-12-31T21:32:50.076Z,62.14
2022-12-31T21:37:58.629Z,62.32
2022-12-31T21:42:59.839Z,63.36
2022-12-31T21:48:17.563Z,62.90
2022-12-31T21:53:23.719Z,63.32
2022-12-31T21:58:26.507Z,63.61
2022-12-31T22:03:27.821Z,63.37
2022-12-31T22:08:29.934Z,63.21
2022-12-31T22:13:28.885Z,63.37
2022-12-31T22:18:28.663Z,62.76
2022-12-31T22:23:30.215Z,63.48
2022-12-31T22:28:38.993Z,63.53
2022-12-31T22:33:38.220Z,63.02
2022-12-31T22:38:38.354Z,62.96
2022-12-31T22:43:40.056Z,62.57
2022-12-31T22:48:39.219Z,62.22
2022-12-31T22:53:41.354Z,62.50
2022-12-31T22:58:40.479Z,62.60
2022-12-31T23:03:39.385Z,62.45
2022-12-31T23:08:39.822Z,62.35
2022-12-31T23:13:58.163Z,62.96
2022-12-31T23:19:14.514Z,62.98
2022-12-31T23:24:21.389Z,63.19
2022-12-31T23:29:21.761Z,62.93
2022-12-31T23:34:20.982Z,62.87
2022-12-31T23:39:21.249Z,62.97
2022-12-31T23:44:20.193Z,62.97
2022-12-31T23:49:18.944Z,63.07
2022-12-31T23:54:17.984Z,62.93
2022-12-31T23:59:18.581Z,62.95
